sensor_id;sensor_type;location;lat;lon;timestamp;temperature;humidity
4643;DHT22;2334;48.710;9.622;2023-03-16T00:01:16;-0.20;99.90
4643;DHT22;2334;48.710;9.622;2023-03-16T00:03:43;-0.20;99.90
4643;DHT22;2334;48.710;9.622;2023-03-16T00:06:10;-0.20;99.90
4643;DHT22;2334;48.710;9.622;2023-03-16T00:08:37;-0.30;99.90
4643;DHT22;2334;48.710;9.622;2023-03-16T00:11:04;-0.30;99.90
4643;DHT22;2334;48.710;9.622;2023-03-16T00:13:33;-0.40;99.90
4643;DHT22;2334;48.710;9.622;2023-03-16T00:16:01;-0.40;99.90
4643;DHT22;2334;48.710;9.622;2023-03-16T00:18:30;-0.40;99.90
4643;DHT22;2334;48.710;9.622;2023-03-16T00:21:03;-0.40;99.90
4643;DHT22;2334;48.710;9.622;2023-03-16T00:23:31;-0.40;99.90
4643;DHT22;2334;48.710;9.622;2023-03-16T00:26:01;-0.40;99.90
4643;DHT22;2334;48.710;9.622;2023-03-16T00:28:29;-0.40;99.90
4643;DHT22;2334;48.710;9.622;2023-03-16T00:31:00;-0.40;99.90
4643;DHT22;2334;48.710;9.622;2023-03-16T00:33:27;-0.40;99.90
4643;DHT22;2334;48.710;9.622;2023-03-16T00:35:54;-0.40;99.90
4643;DHT22;2334;48.710;9.622;2023-03-16T00:38:28;-0.40;99.90
4643;DHT22;2334;48.710;9.622;2023-03-16T00:40:55;-0.40;99.90
4643;DHT22;2334;48.710;9.622;2023-03-16T00:43:23;-0.50;99.90
4643;DHT22;2334;48.710;9.622;2023-03-16T00:45:57;-0.50;99.90
4643;DHT22;2334;48.710;9.622;2023-03-16T00:48:25;-0.50;99.90
4643;DHT22;2334;48.710;9.622;2023-03-16T00:50:52;-0.50;99.90
4643;DHT22;2334;48.710;9.622;2023-03-16T00:53:19;-0.50;99.90
4643;DHT22;2334;48.710;9.622;2023-03-16T00:55:46;-0.60;99.90
4643;DHT22;2334;48.710;9.622;2023-03-16T00:58:13;-0.50;99.90
4643;DHT22;2334;48.710;9.622;2023-03-16T01:00:40;-0.50;99.90
4643;DHT22;2334;48.710;9.622;2023-03-16T01:03:07;-0.50;99.90
4643;DHT22;2334;48.710;9.622;2023-03-16T01:05:40;-0.50;99.90
4643;DHT22;2334;48.710;9.622;2023-03-16T01:08:07;-0.50;99.90
4643;DHT22;2334;48.710;9.622;2023-03-16T01:10:35;-0.50;99.90
4643;DHT22;2334;48.710;9.622;2023-03-16T01:13:02;-0.50;99.90
4643;DHT22;2334;48.710;9.622;2023-03-16T01:15:29;-0.60;99.90
4643;DHT22;2334;48.710;9.622;2023-03-16T01:17:56;-0.60;99.90
4643;DHT22;2334;48.710;9.622;2023-03-16T01:20:23;-0.60;99.90
4643;DHT22;2334;48.710;9.622;2023-03-16T01:22:52;-0.60;99.90
4643;DHT22;2334;48.710;9.622;2023-03-16T01:25:19;-0.60;99.90
4643;DHT22;2334;48.710;9.622;2023-03-16T01:27:46;-0.70;99.90
4643;DHT22;2334;48.710;9.622;2023-03-16T01:30:13;-0.70;99.90
4643;DHT22;2334;48.710;9.622;2023-03-16T01:32:40;-0.60;99.90
4643;DHT22;2334;48.710;9.622;2023-03-16T01:35:08;-0.60;99.90
4643;DHT22;2334;48.710;9.622;2023-03-16T01:37:35;-0.60;99.90
4643;DHT22;2334;48.710;9.622;2023-03-16T01:40:04;-0.60;99.90
4643;DHT22;2334;48.710;9.622;2023-03-16T01:42:31;-0.60;99.90
4643;DHT22;2334;48.710;9.622;2023-03-16T01:48:07;-0.50;99.90
4643;DHT22;2334;48.710;9.622;2023-03-16T01:50:34;-0.60;99.90
4643;DHT22;2334;48.710;9.622;2023-03-16T01:53:01;-0.60;99.90
4643;DHT22;2334;48.710;9.622;2023-03-16T01:55:29;-0.60;99.90
4643;DHT22;2334;48.710;9.622;2023-03-16T01:57:57;-0.70;99.90
4643;DHT22;2334;48.710;9.622;2023-03-16T02:00:23;-0.70;99.90
4643;DHT22;2334;48.710;9.622;2023-03-16T02:02:59;-0.70;99.90
4643;DHT22;2334;48.710;9.622;2023-03-16T02:05:32;-0.60;99.90
4643;DHT22;2334;48.710;9.622;2023-03-16T02:08:02;-0.60;99.90
4643;DHT22;2334;48.710;9.622;2023-03-16T02:10:31;-0.60;99.90
4643;DHT22;2334;48.710;9.622;2023-03-16T02:12:59;-0.60;99.90
4643;DHT22;2334;48.710;9.622;2023-03-16T02:15:26;-0.70;99.90
4643;DHT22;2334;48.710;9.622;2023-03-16T02:17:53;-0.70;99.90
4643;DHT22;2334;48.710;9.622;2023-03-16T02:20:32;-0.70;99.90
4643;DHT22;2334;48.710;9.622;2023-03-16T02:23:01;-0.70;99.90
4643;DHT22;2334;48.710;9.622;2023-03-16T02:25:37;-0.70;99.90
4643;DHT22;2334;48.710;9.622;2023-03-16T02:28:11;-0.70;99.90
4643;DHT22;2334;48.710;9.622;2023-03-16T02:30:42;-0.70;99.90
4643;DHT22;2334;48.710;9.622;2023-03-16T02:33:10;-0.70;99.90
4643;DHT22;2334;48.710;9.622;2023-03-16T02:35:37;-0.70;99.90
4643;DHT22;2334;48.710;9.622;2023-03-16T02:38:04;-0.80;99.90
4643;DHT22;2334;48.710;9.622;2023-03-16T02:40:32;-0.70;99.90
4643;DHT22;2334;48.710;9.622;2023-03-16T02:43:01;-0.70;99.90
4643;DHT22;2334;48.710;9.622;2023-03-16T02:45:33;-0.70;99.90
4643;DHT22;2334;48.710;9.622;2023-03-16T02:48:08;-0.70;99.90
4643;DHT22;2334;48.710;9.622;2023-03-16T02:50:43;-0.70;99.90
4643;DHT22;2334;48.710;9.622;2023-03-16T02:53:11;-0.70;99.90
4643;DHT22;2334;48.710;9.622;2023-03-16T02:55:38;-0.70;99.90
4643;DHT22;2334;48.710;9.622;2023-03-16T02:58:05;-0.80;99.90
4643;DHT22;2334;48.710;9.622;2023-03-16T03:00:32;-0.90;99.90
4643;DHT22;2334;48.710;9.622;2023-03-16T03:02:59;-0.90;99.90
4643;DHT22;2334;48.710;9.622;2023-03-16T03:05:27;-1.00;99.90
4643;DHT22;2334;48.710;9.622;2023-03-16T03:07:54;-1.10;99.90
4643;DHT22;2334;48.710;9.622;2023-03-16T03:10:21;-1.00;99.90
4643;DHT22;2334;48.710;9.622;2023-03-16T03:12:48;-0.90;99.90
4643;DHT22;2334;48.710;9.622;2023-03-16T03:15:15;-1.00;99.90
4643;DHT22;2334;48.710;9.622;2023-03-16T03:17:44;-1.00;99.90
4643;DHT22;2334;48.710;9.622;2023-03-16T03:20:12;-1.00;99.90
4643;DHT22;2334;48.710;9.622;2023-03-16T03:22:44;-1.00;99.90
4643;DHT22;2334;48.710;9.622;2023-03-16T03:25:12;-0.90;99.90
4643;DHT22;2334;48.710;9.622;2023-03-16T03:27:40;-0.90;99.90
4643;DHT22;2334;48.710;9.622;2023-03-16T03:30:09;-0.90;99.90
4643;DHT22;2334;48.710;9.622;2023-03-16T03:32:37;-1.00;99.90
4643;DHT22;2334;48.710;9.622;2023-03-16T03:35:05;-0.90;99.90
4643;DHT22;2334;48.710;9.622;2023-03-16T03:37:32;-1.00;99.90
4643;DHT22;2334;48.710;9.622;2023-03-16T03:40:00;-1.00;99.90
4643;DHT22;2334;48.710;9.622;2023-03-16T03:42:33;-1.00;99.90
4643;DHT22;2334;48.710;9.622;2023-03-16T03:45:00;-1.00;99.90
4643;DHT22;2334;48.710;9.622;2023-03-16T03:47:26;-1.00;99.90
4643;DHT22;2334;48.710;9.622;2023-03-16T03:49:53;-1.10;99.90
4643;DHT22;2334;48.710;9.622;2023-03-16T03:52:20;-1.10;99.90
4643;DHT22;2334;48.710;9.622;2023-03-16T03:54:47;-1.00;99.90
4643;DHT22;2334;48.710;9.622;2023-03-16T03:57:15;-1.00;99.90
4643;DHT22;2334;48.710;9.622;2023-03-16T03:59:42;-1.00;99.90
4643;DHT22;2334;48.710;9.622;2023-03-16T04:02:10;-1.00;99.90
4643;DHT22;2334;48.710;9.622;2023-03-16T04:04:38;-1.00;99.90
4643;DHT22;2334;48.710;9.622;2023-03-16T04:07:05;-1.10;99.90
4643;DHT22;2334;48.710;9.622;2023-03-16T04:09:32;-1.10;99.90
4643;DHT22;2334;48.710;9.622;2023-03-16T04:11:59;-1.00;99.90
4643;DHT22;2334;48.710;9.622;2023-03-16T04:14:28;-1.00;99.90
4643;DHT22;2334;48.710;9.622;2023-03-16T04:16:55;-1.00;99.90
4643;DHT22;2334;48.710;9.622;2023-03-16T04:19:22;-0.90;99.90
4643;DHT22;2334;48.710;9.622;2023-03-16T04:21:50;-0.90;99.90
4643;DHT22;2334;48.710;9.622;2023-03-16T04:24:17;-0.90;99.90
4643;DHT22;2334;48.710;9.622;2023-03-16T04:26:44;-0.90;99.90
4643;DHT22;2334;48.710;9.622;2023-03-16T04:29:12;-0.80;99.90
4643;DHT22;2334;48.710;9.622;2023-03-16T04:31:44;-0.80;99.90
4643;DHT22;2334;48.710;9.622;2023-03-16T04:34:11;-0.80;99.90
4643;DHT22;2334;48.710;9.622;2023-03-16T04:36:38;-0.70;99.90
4643;DHT22;2334;48.710;9.622;2023-03-16T04:39:06;-0.60;99.90
4643;DHT22;2334;48.710;9.622;2023-03-16T04:41:33;-0.60;99.90
4643;DHT22;2334;48.710;9.622;2023-03-16T04:44:00;-0.70;99.90
4643;DHT22;2334;48.710;9.622;2023-03-16T04:46:27;-0.70;99.90
4643;DHT22;2334;48.710;9.622;2023-03-16T04:48:55;-0.70;99.90
4643;DHT22;2334;48.710;9.622;2023-03-16T04:51:23;-0.70;99.90
4643;DHT22;2334;48.710;9.622;2023-03-16T04:53:49;-0.70;99.90
4643;DHT22;2334;48.710;9.622;2023-03-16T04:56:17;-0.70;99.90
4643;DHT22;2334;48.710;9.622;2023-03-16T04:58:44;-0.60;99.90
4643;DHT22;2334;48.710;9.622;2023-03-16T05:01:11;-0.70;99.90
4643;DHT22;2334;48.710;9.622;2023-03-16T05:03:38;-0.70;99.90
4643;DHT22;2334;48.710;9.622;2023-03-16T05:06:06;-0.70;99.90
4643;DHT22;2334;48.710;9.622;2023-03-16T05:08:34;-0.70;99.90
4643;DHT22;2334;48.710;9.622;2023-03-16T05:11:01;-0.70;99.90
4643;DHT22;2334;48.710;9.622;2023-03-16T05:13:28;-0.70;99.90
4643;DHT22;2334;48.710;9.622;2023-03-16T05:15:55;-0.60;99.90
4643;DHT22;2334;48.710;9.622;2023-03-16T05:18:22;-0.60;99.90
4643;DHT22;2334;48.710;9.622;2023-03-16T05:20:50;-0.60;99.90
4643;DHT22;2334;48.710;9.622;2023-03-16T05:23:19;-0.60;99.90
4643;DHT22;2334;48.710;9.622;2023-03-16T05:25:47;-0.60;99.90
4643;DHT22;2334;48.710;9.622;2023-03-16T05:28:14;-0.60;99.90
4643;DHT22;2334;48.710;9.622;2023-03-16T05:30:41;-0.60;99.90
4643;DHT22;2334;48.710;9.622;2023-03-16T05:33:09;-0.50;99.90
4643;DHT22;2334;48.710;9.622;2023-03-16T05:35:36;-0.40;99.90
4643;DHT22;2334;48.710;9.622;2023-03-16T05:38:03;-0.30;99.90
4643;DHT22;2334;48.710;9.622;2023-03-16T05:40:32;-0.30;99.90
4643;DHT22;2334;48.710;9.622;2023-03-16T05:42:59;-0.20;99.90
4643;DHT22;2334;48.710;9.622;2023-03-16T05:45:26;-0.20;99.90
4643;DHT22;2334;48.710;9.622;2023-03-16T05:47:53;-0.20;99.90
4643;DHT22;2334;48.710;9.622;2023-03-16T05:50:20;-0.20;99.90
4643;DHT22;2334;48.710;9.622;2023-03-16T05:52:47;-0.20;99.90
4643;DHT22;2334;48.710;9.622;2023-03-16T05:55:16;-0.20;99.90
4643;DHT22;2334;48.710;9.622;2023-03-16T05:57:44;-0.10;99.90
4643;DHT22;2334;48.710;9.622;2023-03-16T06:00:12;0.00;99.90
4643;DHT22;2334;48.710;9.622;2023-03-16T06:02:40;0.00;99.90
4643;DHT22;2334;48.710;9.622;2023-03-16T06:05:08;0.10;99.90
4643;DHT22;2334;48.710;9.622;2023-03-16T06:07:35;0.20;99.90
4643;DHT22;2334;48.710;9.622;2023-03-16T06:10:02;0.30;99.90
4643;DHT22;2334;48.710;9.622;2023-03-16T06:12:30;0.40;99.90
4643;DHT22;2334;48.710;9.622;2023-03-16T06:14:58;0.50;99.90
4643;DHT22;2334;48.710;9.622;2023-03-16T06:17:25;0.60;99.90
4643;DHT22;2334;48.710;9.622;2023-03-16T06:19:52;0.70;99.90
4643;DHT22;2334;48.710;9.622;2023-03-16T06:22:19;0.80;99.90
4643;DHT22;2334;48.710;9.622;2023-03-16T06:24:46;0.90;99.90
4643;DHT22;2334;48.710;9.622;2023-03-16T06:27:13;1.00;99.90
4643;DHT22;2334;48.710;9.622;2023-03-16T06:29:40;1.20;99.90
4643;DHT22;2334;48.710;9.622;2023-03-16T06:32:08;1.30;99.90
4643;DHT22;2334;48.710;9.622;2023-03-16T06:34:35;1.30;99.90
4643;DHT22;2334;48.710;9.622;2023-03-16T06:37:02;1.40;99.90
4643;DHT22;2334;48.710;9.622;2023-03-16T06:39:30;1.40;99.90
4643;DHT22;2334;48.710;9.622;2023-03-16T06:41:57;1.40;99.90
4643;DHT22;2334;48.710;9.622;2023-03-16T06:44:24;1.40;99.90
4643;DHT22;2334;48.710;9.622;2023-03-16T06:46:51;1.50;99.90
4643;DHT22;2334;48.710;9.622;2023-03-16T06:49:19;1.50;99.90
4643;DHT22;2334;48.710;9.622;2023-03-16T06:51:46;1.50;99.90
4643;DHT22;2334;48.710;9.622;2023-03-16T06:54:12;1.60;99.90
4643;DHT22;2334;48.710;9.622;2023-03-16T06:56:39;1.70;99.90
4643;DHT22;2334;48.710;9.622;2023-03-16T06:59:06;1.80;99.90
4643;DHT22;2334;48.710;9.622;2023-03-16T07:01:33;1.90;99.90
4643;DHT22;2334;48.710;9.622;2023-03-16T07:04:00;2.00;99.90
4643;DHT22;2334;48.710;9.622;2023-03-16T07:06:28;2.10;99.90
4643;DHT22;2334;48.710;9.622;2023-03-16T07:08:55;2.20;99.90
4643;DHT22;2334;48.710;9.622;2023-03-16T07:11:22;2.30;99.90
4643;DHT22;2334;48.710;9.622;2023-03-16T07:13:49;2.40;99.90
4643;DHT22;2334;48.710;9.622;2023-03-16T07:16:16;2.50;99.90
4643;DHT22;2334;48.710;9.622;2023-03-16T07:18:43;2.60;99.90
4643;DHT22;2334;48.710;9.622;2023-03-16T07:21:10;2.70;99.90
4643;DHT22;2334;48.710;9.622;2023-03-16T07:23:38;2.80;99.90
4643;DHT22;2334;48.710;9.622;2023-03-16T07:26:05;2.80;99.90
4643;DHT22;2334;48.710;9.622;2023-03-16T07:28:33;3.00;99.90
4643;DHT22;2334;48.710;9.622;2023-03-16T07:31:00;3.10;99.90
4643;DHT22;2334;48.710;9.622;2023-03-16T07:33:27;3.30;99.90
4643;DHT22;2334;48.710;9.622;2023-03-16T07:35:54;3.50;99.90
4643;DHT22;2334;48.710;9.622;2023-03-16T07:38:21;3.60;99.90
4643;DHT22;2334;48.710;9.622;2023-03-16T07:40:50;3.70;99.90
4643;DHT22;2334;48.710;9.622;2023-03-16T07:43:17;3.80;99.90
4643;DHT22;2334;48.710;9.622;2023-03-16T07:45:47;3.80;99.90
4643;DHT22;2334;48.710;9.622;2023-03-16T07:48:14;3.80;99.90
4643;DHT22;2334;48.710;9.622;2023-03-16T07:50:41;3.90;99.90
4643;DHT22;2334;48.710;9.622;2023-03-16T07:53:09;4.00;99.90
4643;DHT22;2334;48.710;9.622;2023-03-16T07:55:36;4.10;99.90
4643;DHT22;2334;48.710;9.622;2023-03-16T07:58:04;4.10;99.90
4643;DHT22;2334;48.710;9.622;2023-03-16T08:00:32;4.20;99.90
4643;DHT22;2334;48.710;9.622;2023-03-16T08:02:59;4.30;99.90
4643;DHT22;2334;48.710;9.622;2023-03-16T08:05:26;4.30;99.90
4643;DHT22;2334;48.710;9.622;2023-03-16T08:07:53;4.50;99.90
4643;DHT22;2334;48.710;9.622;2023-03-16T08:10:22;4.60;99.90
4643;DHT22;2334;48.710;9.622;2023-03-16T08:12:49;4.60;99.90
4643;DHT22;2334;48.710;9.622;2023-03-16T08:15:18;4.80;99.90
4643;DHT22;2334;48.710;9.622;2023-03-16T08:17:46;4.80;99.90
4643;DHT22;2334;48.710;9.622;2023-03-16T08:20:13;4.80;99.90
4643;DHT22;2334;48.710;9.622;2023-03-16T08:22:40;4.80;99.90
4643;DHT22;2334;48.710;9.622;2023-03-16T08:25:11;5.00;99.90
4643;DHT22;2334;48.710;9.622;2023-03-16T08:27:38;5.10;99.90
4643;DHT22;2334;48.710;9.622;2023-03-16T08:30:09;5.30;99.90
4643;DHT22;2334;48.710;9.622;2023-03-16T08:32:38;5.50;99.90
4643;DHT22;2334;48.710;9.622;2023-03-16T08:35:07;5.80;99.90
4643;DHT22;2334;48.710;9.622;2023-03-16T08:37:38;5.90;99.90
4643;DHT22;2334;48.710;9.622;2023-03-16T08:40:09;6.00;99.90
4643;DHT22;2334;48.710;9.622;2023-03-16T08:42:38;6.00;99.90
4643;DHT22;2334;48.710;9.622;2023-03-16T08:45:08;6.10;99.90
4643;DHT22;2334;48.710;9.622;2023-03-16T08:47:35;6.20;99.90
4643;DHT22;2334;48.710;9.622;2023-03-16T08:50:06;6.10;99.90
4643;DHT22;2334;48.710;9.622;2023-03-16T08:52:34;6.30;99.90
4643;DHT22;2334;48.710;9.622;2023-03-16T08:55:02;6.50;99.90
4643;DHT22;2334;48.710;9.622;2023-03-16T08:57:33;6.60;99.90
4643;DHT22;2334;48.710;9.622;2023-03-16T09:00:01;6.60;99.90
4643;DHT22;2334;48.710;9.622;2023-03-16T09:02:34;6.60;99.90
4643;DHT22;2334;48.710;9.622;2023-03-16T09:05:04;6.70;99.90
4643;DHT22;2334;48.710;9.622;2023-03-16T09:07:31;6.60;99.90
4643;DHT22;2334;48.710;9.622;2023-03-16T09:10:00;6.90;99.90
4643;DHT22;2334;48.710;9.622;2023-03-16T09:12:30;7.00;99.90
4643;DHT22;2334;48.710;9.622;2023-03-16T09:14:57;7.00;99.90
4643;DHT22;2334;48.710;9.622;2023-03-16T09:17:25;7.30;99.90
4643;DHT22;2334;48.710;9.622;2023-03-16T09:19:53;7.20;99.90
4643;DHT22;2334;48.710;9.622;2023-03-16T09:22:21;7.30;99.90
4643;DHT22;2334;48.710;9.622;2023-03-16T09:24:49;7.20;99.90
4643;DHT22;2334;48.710;9.622;2023-03-16T09:27:16;7.20;99.90
4643;DHT22;2334;48.710;9.622;2023-03-16T09:29:43;7.20;99.90
4643;DHT22;2334;48.710;9.622;2023-03-16T09:32:11;7.10;99.90
4643;DHT22;2334;48.710;9.622;2023-03-16T09:34:39;7.10;99.90
4643;DHT22;2334;48.710;9.622;2023-03-16T09:37:06;7.10;99.90
4643;DHT22;2334;48.710;9.622;2023-03-16T09:39:35;7.20;99.90
4643;DHT22;2334;48.710;9.622;2023-03-16T09:42:07;7.40;99.90
4643;DHT22;2334;48.710;9.622;2023-03-16T09:44:46;7.50;99.90
4643;DHT22;2334;48.710;9.622;2023-03-16T09:47:24;7.80;99.90
4643;DHT22;2334;48.710;9.622;2023-03-16T09:49:56;7.90;99.90
4643;DHT22;2334;48.710;9.622;2023-03-16T09:52:30;8.00;99.90
4643;DHT22;2334;48.710;9.622;2023-03-16T09:55:05;8.30;99.90
4643;DHT22;2334;48.710;9.622;2023-03-16T09:57:35;8.80;99.90
4643;DHT22;2334;48.710;9.622;2023-03-16T10:00:14;8.50;99.90
4643;DHT22;2334;48.710;9.622;2023-03-16T10:02:52;8.20;99.90
4643;DHT22;2334;48.710;9.622;2023-03-16T10:05:22;8.10;99.90
4643;DHT22;2334;48.710;9.622;2023-03-16T10:08:01;8.20;99.90
4643;DHT22;2334;48.710;9.622;2023-03-16T10:11:02;7.90;99.90
4643;DHT22;2334;48.710;9.622;2023-03-16T10:13:36;8.30;99.90
4643;DHT22;2334;48.710;9.622;2023-03-16T10:16:08;8.50;99.90
4643;DHT22;2334;48.710;9.622;2023-03-16T10:18:40;8.60;99.90
4643;DHT22;2334;48.710;9.622;2023-03-16T10:21:14;8.70;99.90
4643;DHT22;2334;48.710;9.622;2023-03-16T10:23:43;8.80;99.90
4643;DHT22;2334;48.710;9.622;2023-03-16T10:26:22;8.70;99.90
4643;DHT22;2334;48.710;9.622;2023-03-16T10:28:51;8.70;99.90
4643;DHT22;2334;48.710;9.622;2023-03-16T10:31:21;8.80;99.90
4643;DHT22;2334;48.710;9.622;2023-03-16T10:33:51;8.90;99.90
4643;DHT22;2334;48.710;9.622;2023-03-16T10:36:26;8.90;99.90
4643;DHT22;2334;48.710;9.622;2023-03-16T10:38:58;8.80;99.90
4643;DHT22;2334;48.710;9.622;2023-03-16T10:41:29;8.70;99.90
4643;DHT22;2334;48.710;9.622;2023-03-16T10:43:58;8.50;99.90
4643;DHT22;2334;48.710;9.622;2023-03-16T10:46:36;8.60;99.90
4643;DHT22;2334;48.710;9.622;2023-03-16T10:49:04;8.70;99.90
4643;DHT22;2334;48.710;9.622;2023-03-16T10:51:32;8.50;99.90
4643;DHT22;2334;48.710;9.622;2023-03-16T10:54:06;8.50;99.90
4643;DHT22;2334;48.710;9.622;2023-03-16T10:56:37;8.60;99.90
4643;DHT22;2334;48.710;9.622;2023-03-16T10:59:15;8.60;99.90
4643;DHT22;2334;48.710;9.622;2023-03-16T11:01:52;8.50;99.90
4643;DHT22;2334;48.710;9.622;2023-03-16T11:04:19;8.70;99.90
4643;DHT22;2334;48.710;9.622;2023-03-16T11:06:50;8.80;99.90
4643;DHT22;2334;48.710;9.622;2023-03-16T11:09:21;8.70;99.90
4643;DHT22;2334;48.710;9.622;2023-03-16T11:11:51;9.10;99.90
4643;DHT22;2334;48.710;9.622;2023-03-16T11:14:20;9.40;99.90
4643;DHT22;2334;48.710;9.622;2023-03-16T11:16:52;9.50;99.90
4643;DHT22;2334;48.710;9.622;2023-03-16T11:19:24;9.50;99.90
4643;DHT22;2334;48.710;9.622;2023-03-16T11:21:56;9.80;99.90
4643;DHT22;2334;48.710;9.622;2023-03-16T11:24:29;10.00;99.90
4643;DHT22;2334;48.710;9.622;2023-03-16T11:27:01;10.10;99.90
4643;DHT22;2334;48.710;9.622;2023-03-16T11:29:40;10.30;99.90
4643;DHT22;2334;48.710;9.622;2023-03-16T11:32:12;10.10;99.90
4643;DHT22;2334;48.710;9.622;2023-03-16T11:34:43;10.40;99.90
4643;DHT22;2334;48.710;9.622;2023-03-16T11:37:20;10.30;99.90
4643;DHT22;2334;48.710;9.622;2023-03-16T11:39:55;10.70;99.90
4643;DHT22;2334;48.710;9.622;2023-03-16T11:42:29;10.80;99.90
4643;DHT22;2334;48.710;9.622;2023-03-16T11:45:04;11.10;99.90
4643;DHT22;2334;48.710;9.622;2023-03-16T11:50:46;11.60;99.90
4643;DHT22;2334;48.710;9.622;2023-03-16T11:53:26;11.60;99.90
4643;DHT22;2334;48.710;9.622;2023-03-16T11:56:04;11.20;99.90
4643;DHT22;2334;48.710;9.622;2023-03-16T11:58:49;11.10;99.90
4643;DHT22;2334;48.710;9.622;2023-03-16T12:01:25;11.20;99.90
4643;DHT22;2334;48.710;9.622;2023-03-16T12:07:00;11.40;99.90
4643;DHT22;2334;48.710;9.622;2023-03-16T12:09:47;11.60;99.90
4643;DHT22;2334;48.710;9.622;2023-03-16T12:12:28;11.00;99.90
4643;DHT22;2334;48.710;9.622;2023-03-16T12:15:12;11.30;99.90
4643;DHT22;2334;48.710;9.622;2023-03-16T12:17:43;11.60;99.90
4643;DHT22;2334;48.710;9.622;2023-03-16T12:20:16;11.40;99.90
4643;DHT22;2334;48.710;9.622;2023-03-16T12:22:48;11.60;99.90
4643;DHT22;2334;48.710;9.622;2023-03-16T12:25:18;11.50;99.90
4643;DHT22;2334;48.710;9.622;2023-03-16T12:27:48;11.30;99.90
4643;DHT22;2334;48.710;9.622;2023-03-16T12:30:31;11.40;99.90
4643;DHT22;2334;48.710;9.622;2023-03-16T12:33:03;11.00;99.90
4643;DHT22;2334;48.710;9.622;2023-03-16T12:35:38;11.40;99.90
4643;DHT22;2334;48.710;9.622;2023-03-16T12:38:24;11.80;99.90
4643;DHT22;2334;48.710;9.622;2023-03-16T12:41:05;11.60;99.90
4643;DHT22;2334;48.710;9.622;2023-03-16T12:43:45;11.60;99.90
4643;DHT22;2334;48.710;9.622;2023-03-16T12:46:21;11.80;99.90
4643;DHT22;2334;48.710;9.622;2023-03-16T12:48:55;11.90;99.90
4643;DHT22;2334;48.710;9.622;2023-03-16T12:51:32;12.10;99.90
4643;DHT22;2334;48.710;9.622;2023-03-16T12:54:00;11.90;99.90
4643;DHT22;2334;48.710;9.622;2023-03-16T12:56:30;11.50;99.90
4643;DHT22;2334;48.710;9.622;2023-03-16T12:58:59;11.50;99.90
4643;DHT22;2334;48.710;9.622;2023-03-16T13:01:28;11.90;99.90
4643;DHT22;2334;48.710;9.622;2023-03-16T13:04:01;12.10;99.90
4643;DHT22;2334;48.710;9.622;2023-03-16T13:06:32;12.10;99.90
4643;DHT22;2334;48.710;9.622;2023-03-16T13:09:02;11.70;99.90
4643;DHT22;2334;48.710;9.622;2023-03-16T13:11:39;11.60;99.90
4643;DHT22;2334;48.710;9.622;2023-03-16T13:14:08;11.80;99.90
4643;DHT22;2334;48.710;9.622;2023-03-16T13:16:39;12.00;99.90
4643;DHT22;2334;48.710;9.622;2023-03-16T13:19:27;12.20;99.90
4643;DHT22;2334;48.710;9.622;2023-03-16T13:22:02;12.50;99.90
4643;DHT22;2334;48.710;9.622;2023-03-16T13:24:39;12.40;99.90
4643;DHT22;2334;48.710;9.622;2023-03-16T13:27:18;12.50;99.90
4643;DHT22;2334;48.710;9.622;2023-03-16T13:29:52;12.60;99.90
4643;DHT22;2334;48.710;9.622;2023-03-16T13:32:21;12.50;99.90
4643;DHT22;2334;48.710;9.622;2023-03-16T13:34:52;12.10;99.90
4643;DHT22;2334;48.710;9.622;2023-03-16T13:37:22;11.90;99.90
4643;DHT22;2334;48.710;9.622;2023-03-16T13:39:53;11.90;99.90
4643;DHT22;2334;48.710;9.622;2023-03-16T13:42:22;12.10;99.90
4643;DHT22;2334;48.710;9.622;2023-03-16T13:44:51;12.20;99.90
4643;DHT22;2334;48.710;9.622;2023-03-16T13:47:21;12.00;99.90
4643;DHT22;2334;48.710;9.622;2023-03-16T13:49:49;11.90;99.90
4643;DHT22;2334;48.710;9.622;2023-03-16T13:52:24;12.00;99.90
4643;DHT22;2334;48.710;9.622;2023-03-16T13:54:52;11.90;99.90
4643;DHT22;2334;48.710;9.622;2023-03-16T13:57:23;11.90;99.90
4643;DHT22;2334;48.710;9.622;2023-03-16T13:59:51;12.20;99.90
4643;DHT22;2334;48.710;9.622;2023-03-16T14:02:24;12.30;99.90
4643;DHT22;2334;48.710;9.622;2023-03-16T14:04:51;12.30;99.90
4643;DHT22;2334;48.710;9.622;2023-03-16T14:07:20;12.50;99.90
4643;DHT22;2334;48.710;9.622;2023-03-16T14:09:49;12.50;99.90
4643;DHT22;2334;48.710;9.622;2023-03-16T14:12:18;12.60;99.90
4643;DHT22;2334;48.710;9.622;2023-03-16T14:14:46;12.40;99.90
4643;DHT22;2334;48.710;9.622;2023-03-16T14:17:16;12.50;99.90
4643;DHT22;2334;48.710;9.622;2023-03-16T14:19:47;12.60;99.90
4643;DHT22;2334;48.710;9.622;2023-03-16T14:22:16;12.40;99.90
4643;DHT22;2334;48.710;9.622;2023-03-16T14:24:44;12.30;99.90
4643;DHT22;2334;48.710;9.622;2023-03-16T14:27:19;12.20;99.90
4643;DHT22;2334;48.710;9.622;2023-03-16T14:29:53;12.00;99.90
4643;DHT22;2334;48.710;9.622;2023-03-16T14:32:27;11.70;99.90
4643;DHT22;2334;48.710;9.622;2023-03-16T14:35:13;11.40;99.90
4643;DHT22;2334;48.710;9.622;2023-03-16T14:37:41;11.50;99.90
4643;DHT22;2334;48.710;9.622;2023-03-16T14:40:23;11.60;99.90
4643;DHT22;2334;48.710;9.622;2023-03-16T14:42:51;11.80;99.90
4643;DHT22;2334;48.710;9.622;2023-03-16T14:45:20;11.70;99.90
4643;DHT22;2334;48.710;9.622;2023-03-16T14:47:48;12.00;99.90
4643;DHT22;2334;48.710;9.622;2023-03-16T14:50:22;12.20;99.90
4643;DHT22;2334;48.710;9.622;2023-03-16T14:52:50;12.10;99.90
4643;DHT22;2334;48.710;9.622;2023-03-16T14:55:19;12.10;99.90
4643;DHT22;2334;48.710;9.622;2023-03-16T14:57:47;12.10;99.90
4643;DHT22;2334;48.710;9.622;2023-03-16T15:00:17;12.00;99.90
4643;DHT22;2334;48.710;9.622;2023-03-16T15:02:58;12.00;99.90
4643;DHT22;2334;48.710;9.622;2023-03-16T15:05:32;12.20;99.90
4643;DHT22;2334;48.710;9.622;2023-03-16T15:08:00;12.20;99.90
4643;DHT22;2334;48.710;9.622;2023-03-16T15:10:29;12.30;99.90
4643;DHT22;2334;48.710;9.622;2023-03-16T15:12:58;12.40;99.90
4643;DHT22;2334;48.710;9.622;2023-03-16T15:15:38;12.40;99.90
4643;DHT22;2334;48.710;9.622;2023-03-16T15:18:05;12.40;99.90
4643;DHT22;2334;48.710;9.622;2023-03-16T15:20:38;12.50;99.90
4643;DHT22;2334;48.710;9.622;2023-03-16T15:23:07;12.50;99.90
4643;DHT22;2334;48.710;9.622;2023-03-16T15:25:36;12.60;99.90
4643;DHT22;2334;48.710;9.622;2023-03-16T15:28:10;12.50;99.90
4643;DHT22;2334;48.710;9.622;2023-03-16T15:30:38;12.50;99.90
4643;DHT22;2334;48.710;9.622;2023-03-16T15:33:05;12.40;99.90
4643;DHT22;2334;48.710;9.622;2023-03-16T15:35:33;12.40;99.90
4643;DHT22;2334;48.710;9.622;2023-03-16T15:38:03;12.40;99.90
4643;DHT22;2334;48.710;9.622;2023-03-16T15:40:31;12.10;99.90
4643;DHT22;2334;48.710;9.622;2023-03-16T15:42:59;12.10;99.90
4643;DHT22;2334;48.710;9.622;2023-03-16T15:45:27;11.90;99.90
4643;DHT22;2334;48.710;9.622;2023-03-16T15:47:54;11.80;99.90
4643;DHT22;2334;48.710;9.622;2023-03-16T15:50:22;11.80;99.90
4643;DHT22;2334;48.710;9.622;2023-03-16T15:52:54;11.70;99.90
4643;DHT22;2334;48.710;9.622;2023-03-16T15:55:28;11.60;99.90
4643;DHT22;2334;48.710;9.622;2023-03-16T15:57:59;11.60;99.90
4643;DHT22;2334;48.710;9.622;2023-03-16T16:00:29;11.70;99.90
4643;DHT22;2334;48.710;9.622;2023-03-16T16:02:58;11.60;99.90
4643;DHT22;2334;48.710;9.622;2023-03-16T16:05:26;11.50;99.90
4643;DHT22;2334;48.710;9.622;2023-03-16T16:07:54;11.40;99.90
4643;DHT22;2334;48.710;9.622;2023-03-16T16:10:22;11.40;99.90
4643;DHT22;2334;48.710;9.622;2023-03-16T16:12:50;11.40;99.90
4643;DHT22;2334;48.710;9.622;2023-03-16T16:15:21;11.40;99.90
4643;DHT22;2334;48.710;9.622;2023-03-16T16:17:50;11.40;99.90
4643;DHT22;2334;48.710;9.622;2023-03-16T16:20:20;11.20;99.90
4643;DHT22;2334;48.710;9.622;2023-03-16T16:22:47;11.20;99.90
4643;DHT22;2334;48.710;9.622;2023-03-16T16:25:16;11.20;99.90
4643;DHT22;2334;48.710;9.622;2023-03-16T16:27:44;11.20;99.90
4643;DHT22;2334;48.710;9.622;2023-03-16T16:30:19;11.20;99.90
4643;DHT22;2334;48.710;9.622;2023-03-16T16:32:47;11.10;99.90